sensor_id;sensor_type;location;lat;lon;timestamp;pressure;altitude;pressure_sealevel;temperature
76901;BMP280;65859;43.020;25.096;2022-12-29T07:15:14;100337.09;;;8.04
76901;BMP280;65859;43.020;25.096;2022-12-29T07:17:41;100345.41;;;9.32
76901;BMP280;65859;43.020;25.096;2022-12-29T07:20:08;100343.13;;;8.44
76901;BMP280;65859;43.020;25.096;2022-12-29T07:22:34;100339.63;;;8.77
76901;BMP280;65859;43.020;25.096;2022-12-29T07:25:01;100345.47;;;8.79
76901;BMP280;65859;43.020;25.096;2022-12-29T07:27:28;100346.50;;;9.26
76901;BMP280;65859;43.020;25.096;2022-12-29T07:29:54;100334.38;;;10.19
76901;BMP280;65859;43.020;25.096;2022-12-29T07:32:21;100354.66;;;9.54
76901;BMP280;65859;43.020;25.096;2022-12-29T07:34:47;100338.69;;;8.68
76901;BMP280;65859;43.020;25.096;2022-12-29T07:37:15;100341.34;;;10.75
76901;BMP280;65859;43.020;25.096;2022-12-29T07:39:42;100342.63;;;11.19
76901;BMP280;65859;43.020;25.096;2022-12-29T07:42:09;100350.78;;;10.95
76901;BMP280;65859;43.020;25.096;2022-12-29T07:44:35;100350.78;;;11.23
76901;BMP280;65859;43.020;25.096;2022-12-29T07:47:03;100348.88;;;12.18
76901;BMP280;65859;43.020;25.096;2022-12-29T07:49:30;100350.13;;;12.43
76901;BMP280;65859;43.020;25.096;2022-12-29T07:51:56;100346.47;;;11.63
76901;BMP280;65859;43.020;25.096;2022-12-29T07:54:22;100348.50;;;10.61
76901;BMP280;65859;43.020;25.096;2022-12-29T07:56:49;100348.22;;;12.12
76901;BMP280;65859;43.020;25.096;2022-12-29T07:59:16;100342.81;;;12.17
76901;BMP280;65859;43.020;25.096;2022-12-29T08:01:42;100350.03;;;12.57
76901;BMP280;65859;43.020;25.096;2022-12-29T08:04:09;100350.63;;;12.93
76901;BMP280;65859;43.020;25.096;2022-12-29T08:06:35;100340.00;;;13.11
76901;BMP280;65859;43.020;25.096;2022-12-29T08:09:04;100349.81;;;10.64
76901;BMP280;65859;43.020;25.096;2022-12-29T08:11:30;100348.25;;;9.79
76901;BMP280;65859;43.020;25.096;2022-12-29T08:13:56;100346.00;;;9.67
76901;BMP280;65859;43.020;25.096;2022-12-29T08:16:23;100348.59;;;9.53
76901;BMP280;65859;43.020;25.096;2022-12-29T08:18:50;100360.56;;;9.51
76901;BMP280;65859;43.020;25.096;2022-12-29T08:21:16;100348.75;;;10.78
76901;BMP280;65859;43.020;25.096;2022-12-29T08:23:43;100349.75;;;10.50
76901;BMP280;65859;43.020;25.096;2022-12-29T08:26:10;100339.38;;;11.22
76901;BMP280;65859;43.020;25.096;2022-12-29T08:28:37;100346.91;;;13.29
76901;BMP280;65859;43.020;25.096;2022-12-29T08:31:03;100344.09;;;15.21
76901;BMP280;65859;43.020;25.096;2022-12-29T08:33:30;100331.59;;;16.25
76901;BMP280;65859;43.020;25.096;2022-12-29T08:36:07;100330.47;;;16.38
76901;BMP280;65859;43.020;25.096;2022-12-29T08:38:33;100330.34;;;16.59
76901;BMP280;65859;43.020;25.096;2022-12-29T08:41:00;100328.63;;;16.78
76901;BMP280;65859;43.020;25.096;2022-12-29T08:43:30;100326.47;;;14.79
76901;BMP280;65859;43.020;25.096;2022-12-29T08:45:58;100323.25;;;13.27
76901;BMP280;65859;43.020;25.096;2022-12-29T08:48:25;100315.13;;;12.27
76901;BMP280;65859;43.020;25.096;2022-12-29T08:50:53;100311.81;;;12.61
76901;BMP280;65859;43.020;25.096;2022-12-29T08:53:20;100311.28;;;11.44
76901;BMP280;65859;43.020;25.096;2022-12-29T08:55:47;100304.84;;;11.81
76901;BMP280;65859;43.020;25.096;2022-12-29T08:58:20;100315.41;;;11.95
76901;BMP280;65859;43.020;25.096;2022-12-29T09:00:46;100308.34;;;12.52
76901;BMP280;65859;43.020;25.096;2022-12-29T09:03:12;100297.69;;;12.43
76901;BMP280;65859;43.020;25.096;2022-12-29T09:05:39;100296.38;;;12.89
76901;BMP280;65859;43.020;25.096;2022-12-29T09:08:05;100291.47;;;11.50
76901;BMP280;65859;43.020;25.096;2022-12-29T09:10:32;100283.13;;;12.18
76901;BMP280;65859;43.020;25.096;2022-12-29T09:12:58;100296.22;;;15.28
76901;BMP280;65859;43.020;25.096;2022-12-29T09:15:24;100283.72;;;17.16
76901;BMP280;65859;43.020;25.096;2022-12-29T09:17:51;100289.25;;;19.98
76901;BMP280;65859;43.020;25.096;2022-12-29T09:20:19;100291.94;;;20.92
76901;BMP280;65859;43.020;25.096;2022-12-29T09:22:47;100287.59;;;20.20
76901;BMP280;65859;43.020;25.096;2022-12-29T09:25:14;100285.38;;;19.50
76901;BMP280;65859;43.020;25.096;2022-12-29T09:27:41;100277.78;;;20.05
76901;BMP280;65859;43.020;25.096;2022-12-29T09:30:10;100276.22;;;21.42
76901;BMP280;65859;43.020;25.096;2022-12-29T09:32:37;100274.81;;;19.87
76901;BMP280;65859;43.020;25.096;2022-12-29T09:35:04;100275.16;;;18.94
76901;BMP280;65859;43.020;25.096;2022-12-29T09:37:31;100262.59;;;20.87
76901;BMP280;65859;43.020;25.096;2022-12-29T09:39:58;100264.16;;;23.59
76901;BMP280;65859;43.020;25.096;2022-12-29T09:42:29;100258.19;;;22.18
76901;BMP280;65859;43.020;25.096;2022-12-29T09:47:32;100247.91;;;23.27
76901;BMP280;65859;43.020;25.096;2022-12-29T09:52:35;100230.47;;;28.49
76901;BMP280;65859;43.020;25.096;2022-12-29T09:55:10;100240.91;;;27.66
76901;BMP280;65859;43.020;25.096;2022-12-29T09:57:41;100232.66;;;28.71
76901;BMP280;65859;43.020;25.096;2022-12-29T10:00:16;100221.03;;;30.17
76901;BMP280;65859;43.020;25.096;2022-12-29T10:02:50;100219.97;;;28.93
76901;BMP280;65859;43.020;25.096;2022-12-29T10:10:38;100214.44;;;29.89
76901;BMP280;65859;43.020;25.096;2022-12-29T10:13:32;100217.44;;;30.98
76901;BMP280;65859;43.020;25.096;2022-12-29T10:16:18;100209.31;;;27.85
76901;BMP280;65859;43.020;25.096;2022-12-29T10:24:13;100211.66;;;27.86
76901;BMP280;65859;43.020;25.096;2022-12-29T10:26:44;100208.63;;;31.65
76901;BMP280;65859;43.020;25.096;2022-12-29T10:29:33;100196.97;;;28.61
76901;BMP280;65859;43.020;25.096;2022-12-29T10:34:45;100197.72;;;28.78
76901;BMP280;65859;43.020;25.096;2022-12-29T10:40:19;100188.16;;;31.66
76901;BMP280;65859;43.020;25.096;2022-12-29T10:42:55;100187.03;;;31.85
76901;BMP280;65859;43.020;25.096;2022-12-29T10:45:28;100184.88;;;34.27
76901;BMP280;65859;43.020;25.096;2022-12-29T10:48:09;100179.38;;;34.85
76901;BMP280;65859;43.020;25.096;2022-12-29T10:50:41;100183.81;;;36.39
76901;BMP280;65859;43.020;25.096;2022-12-29T10:53:23;100184.47;;;36.03
76901;BMP280;65859;43.020;25.096;2022-12-29T10:55:52;100174.41;;;36.26
76901;BMP280;65859;43.020;25.096;2022-12-29T10:58:20;100179.34;;;36.73
76901;BMP280;65859;43.020;25.096;2022-12-29T11:00:53;100173.88;;;35.55
76901;BMP280;65859;43.020;25.096;2022-12-29T11:03:44;100171.16;;;35.06
76901;BMP280;65859;43.020;25.096;2022-12-29T11:06:28;100161.81;;;35.99
76901;BMP280;65859;43.020;25.096;2022-12-29T11:09:24;100169.56;;;36.46
76901;BMP280;65859;43.020;25.096;2022-12-29T11:11:48;100157.94;;;37.11
76901;BMP280;65859;43.020;25.096;2022-12-29T11:14:19;100143.41;;;37.27
76901;BMP280;65859;43.020;25.096;2022-12-29T11:17:01;100152.50;;;37.33
76901;BMP280;65859;43.020;25.096;2022-12-29T11:19:31;100144.09;;;36.74
76901;BMP280;65859;43.020;25.096;2022-12-29T11:22:14;100141.34;;;36.74
76901;BMP280;65859;43.020;25.096;2022-12-29T11:24:47;100140.78;;;36.07
76901;BMP280;65859;43.020;25.096;2022-12-29T11:27:25;100139.19;;;35.54
76901;BMP280;65859;43.020;25.096;2022-12-29T11:29:54;100133.19;;;34.51
76901;BMP280;65859;43.020;25.096;2022-12-29T11:32:22;100130.72;;;32.35
76901;BMP280;65859;43.020;25.096;2022-12-29T11:34:49;100127.44;;;28.79
76901;BMP280;65859;43.020;25.096;2022-12-29T11:37:19;100121.59;;;28.64
76901;BMP280;65859;43.020;25.096;2022-12-29T11:39:50;100127.25;;;32.95
76901;BMP280;65859;43.020;25.096;2022-12-29T11:42:22;100128.78;;;30.01
76901;BMP280;65859;43.020;25.096;2022-12-29T11:44:49;100130.34;;;35.10
76901;BMP280;65859;43.020;25.096;2022-12-29T11:47:27;100121.44;;;31.96
76901;BMP280;65859;43.020;25.096;2022-12-29T11:50:01;100117.19;;;30.75
76901;BMP280;65859;43.020;25.096;2022-12-29T11:52:31;100116.16;;;33.13
76901;BMP280;65859;43.020;25.096;2022-12-29T11:55:01;100116.72;;;34.57
76901;BMP280;65859;43.020;25.096;2022-12-29T11:57:29;100110.72;;;31.80
76901;BMP280;65859;43.020;25.096;2022-12-29T12:00:01;100115.59;;;29.23
76901;BMP280;65859;43.020;25.096;2022-12-29T12:02:41;100107.94;;;30.03
76901;BMP280;65859;43.020;25.096;2022-12-29T12:05:51;100099.13;;;28.98
76901;BMP280;65859;43.020;25.096;2022-12-29T12:11:12;100088.91;;;35.30
76901;BMP280;65859;43.020;25.096;2022-12-29T12:18:50;100072.91;;;23.47
76901;BMP280;65859;43.020;25.096;2022-12-29T12:21:42;100066.13;;;22.86
76901;BMP280;65859;43.020;25.096;2022-12-29T12:32:49;100052.47;;;19.67
76901;BMP280;65859;43.020;25.096;2022-12-29T12:38:17;100059.84;;;17.64
76901;BMP280;65859;43.020;25.096;2022-12-29T12:43:39;100056.22;;;17.56
76901;BMP280;65859;43.020;25.096;2022-12-29T13:07:56;100047.56;;;16.09
76901;BMP280;65859;43.020;25.096;2022-12-29T13:10:39;100047.88;;;15.79
76901;BMP280;65859;43.020;25.096;2022-12-29T13:24:42;100058.50;;;15.51
76901;BMP280;65859;43.020;25.096;2022-12-29T13:27:20;100054.94;;;15.72
76901;BMP280;65859;43.020;25.096;2022-12-29T13:35:59;100060.19;;;15.07
76901;BMP280;65859;43.020;25.096;2022-12-29T13:38:44;100050.94;;;15.05
76901;BMP280;65859;43.020;25.096;2022-12-29T13:43:55;100053.72;;;14.96
76901;BMP280;65859;43.020;25.096;2022-12-29T13:46:40;100054.03;;;14.82
76901;BMP280;65859;43.020;25.096;2022-12-29T13:49:18;100046.06;;;14.73
76901;BMP280;65859;43.020;25.096;2022-12-29T13:52:03;100055.94;;;14.61
76901;BMP280;65859;43.020;25.096;2022-12-29T13:54:47;100047.28;;;14.64
76901;BMP280;65859;43.020;25.096;2022-12-29T14:00:21;100055.06;;;14.57
76901;BMP280;65859;43.020;25.096;2022-12-29T14:06:20;100066.63;;;14.28
76901;BMP280;65859;43.020;25.096;2022-12-29T14:08:49;100063.22;;;14.18
76901;BMP280;65859;43.020;25.096;2022-12-29T14:11:18;100063.34;;;14.01
76901;BMP280;65859;43.020;25.096;2022-12-29T14:13:47;100064.06;;;13.90
76901;BMP280;65859;43.020;25.096;2022-12-29T14:16:44;100064.28;;;13.76
76901;BMP280;65859;43.020;25.096;2022-12-29T14:21:41;100065.91;;;13.68
76901;BMP280;65859;43.020;25.096;2022-12-29T14:26:59;100072.84;;;13.60
76901;BMP280;65859;43.020;25.096;2022-12-29T14:29:46;100067.53;;;13.52
76901;BMP280;65859;43.020;25.096;2022-12-29T14:35:00;100069.38;;;13.22
76901;BMP280;65859;43.020;25.096;2022-12-29T14:37:38;100060.13;;;13.28
76901;BMP280;65859;43.020;25.096;2022-12-29T14:40:40;100074.91;;;13.08
76901;BMP280;65859;43.020;25.096;2022-12-29T14:43:13;100065.41;;;12.81
76901;BMP280;65859;43.020;25.096;2022-12-29T14:45:43;100078.88;;;12.93
76901;BMP280;65859;43.020;25.096;2022-12-29T14:48:38;100075.56;;;12.96
76901;BMP280;65859;43.020;25.096;2022-12-29T14:51:40;100071.53;;;12.30
76901;BMP280;65859;43.020;25.096;2022-12-29T14:57:18;100078.03;;;11.98
76901;BMP280;65859;43.020;25.096;2022-12-29T14:59:47;100076.31;;;11.93
76901;BMP280;65859;43.020;25.096;2022-12-29T15:02:20;100084.44;;;11.97
76901;BMP280;65859;43.020;25.096;2022-12-29T15:04:48;100086.97;;;12.02
76901;BMP280;65859;43.020;25.096;2022-12-29T15:07:18;100091.00;;;11.90
76901;BMP280;65859;43.020;25.096;2022-12-29T15:10:15;100084.41;;;11.79
76901;BMP280;65859;43.020;25.096;2022-12-29T15:12:53;100089.16;;;12.00
76901;BMP280;65859;43.020;25.096;2022-12-29T15:17:48;100091.34;;;11.49
76901;BMP280;65859;43.020;25.096;2022-12-29T15:20:27;100085.31;;;11.35
76901;BMP280;65859;43.020;25.096;2022-12-29T15:23:03;100089.16;;;11.20
76901;BMP280;65859;43.020;25.096;2022-12-29T15:25:34;100094.47;;;11.20
76901;BMP280;65859;43.020;25.096;2022-12-29T15:28:06;100096.00;;;10.99
76901;BMP280;65859;43.020;25.096;2022-12-29T15:30:33;100097.09;;;10.98
76901;BMP280;65859;43.020;25.096;2022-12-29T15:33:00;100090.13;;;11.02
76901;BMP280;65859;43.020;25.096;2022-12-29T15:35:32;100094.06;;;11.04
76901;BMP280;65859;43.020;25.096;2022-12-29T15:38:14;100099.53;;;11.08
76901;BMP280;65859;43.020;25.096;2022-12-29T15:40:44;100105.13;;;10.84
76901;BMP280;65859;43.020;25.096;2022-12-29T15:46:05;100101.78;;;10.92
76901;BMP280;65859;43.020;25.096;2022-12-29T15:48:32;100097.53;;;10.91
76901;BMP280;65859;43.020;25.096;2022-12-29T15:51:00;100108.50;;;10.98
76901;BMP280;65859;43.020;25.096;2022-12-29T15:53:32;100103.63;;;10.92
76901;BMP280;65859;43.020;25.096;2022-12-29T15:56:05;100109.84;;;11.09
76901;BMP280;65859;43.020;25.096;2022-12-29T15:58:41;100101.88;;;10.87
76901;BMP280;65859;43.020;25.096;2022-12-29T16:01:31;100099.66;;;10.80
76901;BMP280;65859;43.020;25.096;2022-12-29T16:04:04;100102.66;;;10.88
76901;BMP280;65859;43.020;25.096;2022-12-29T16:06:44;100101.59;;;10.89
76901;BMP280;65859;43.020;25.096;2022-12-29T16:09:17;100100.56;;;10.62
76901;BMP280;65859;43.020;25.096;2022-12-29T16:11:53;100104.97;;;10.31
76901;BMP280;65859;43.020;25.096;2022-12-29T16:14:42;100105.06;;;10.25
76901;BMP280;65859;43.020;25.096;2022-12-29T16:17:16;100098.09;;;10.30
76901;BMP280;65859;43.020;25.096;2022-12-29T16:20:04;100105.38;;;10.10
76901;BMP280;65859;43.020;25.096;2022-12-29T16:22:42;100100.53;;;10.40
76901;BMP280;65859;43.020;25.096;2022-12-29T16:25:35;100109.13;;;10.23
76901;BMP280;65859;43.020;25.096;2022-12-29T16:28:18;100106.16;;;9.83
76901;BMP280;65859;43.020;25.096;2022-12-29T16:30:46;100107.34;;;9.44
76901;BMP280;65859;43.020;25.096;2022-12-29T16:33:45;100112.78;;;9.67
76901;BMP280;65859;43.020;25.096;2022-12-29T16:36:38;100112.81;;;9.81
76901;BMP280;65859;43.020;25.096;2022-12-29T16:39:24;100112.31;;;9.65
76901;BMP280;65859;43.020;25.096;2022-12-29T16:41:54;100117.31;;;9.53
76901;BMP280;65859;43.020;25.096;2022-12-29T16:47:26;100114.06;;;9.23
76901;BMP280;65859;43.020;25.096;2022-12-29T16:49:53;100118.34;;;9.00
76901;BMP280;65859;43.020;25.096;2022-12-29T16:52:29;100117.69;;;9.08
76901;BMP280;65859;43.020;25.096;2022-12-29T16:55:00;100115.94;;;9.04
76901;BMP280;65859;43.020;25.096;2022-12-29T16:57:34;100127.22;;;8.72
76901;BMP280;65859;43.020;25.096;2022-12-29T17:00:07;100127.94;;;8.34
76901;BMP280;65859;43.020;25.096;2022-12-29T17:02:35;100126.19;;;8.49
76901;BMP280;65859;43.020;25.096;2022-12-29T17:05:15;100125.22;;;8.21
76901;BMP280;65859;43.020;25.096;2022-12-29T17:07:43;100133.25;;;8.05
76901;BMP280;65859;43.020;25.096;2022-12-29T17:10:11;100132.56;;;8.24
76901;BMP280;65859;43.020;25.096;2022-12-29T17:12:42;100129.16;;;7.94
76901;BMP280;65859;43.020;25.096;2022-12-29T17:15:21;100133.06;;;7.73
76901;BMP280;65859;43.020;25.096;2022-12-29T17:17:51;100132.56;;;7.71
76901;BMP280;65859;43.020;25.096;2022-12-29T17:20:29;100135.22;;;7.71
76901;BMP280;65859;43.020;25.096;2022-12-29T17:22:56;100129.19;;;7.65
76901;BMP280;65859;43.020;25.096;2022-12-29T17:25:36;100133.13;;;7.63
76901;BMP280;65859;43.020;25.096;2022-12-29T17:28:12;100132.13;;;7.58
76901;BMP280;65859;43.020;25.096;2022-12-29T17:30:43;100135.25;;;7.61
76901;BMP280;65859;43.020;25.096;2022-12-29T17:33:14;100134.31;;;7.46
76901;BMP280;65859;43.020;25.096;2022-12-29T17:35:41;100136.41;;;7.49
76901;BMP280;65859;43.020;25.096;2022-12-29T17:38:30;100134.31;;;7.12
76901;BMP280;65859;43.020;25.096;2022-12-29T17:40:58;100128.09;;;7.32
76901;BMP280;65859;43.020;25.096;2022-12-29T17:43:26;100129.78;;;7.13
76901;BMP280;65859;43.020;25.096;2022-12-29T17:45:55;100128.28;;;7.41
76901;BMP280;65859;43.020;25.096;2022-12-29T17:48:23;100132.31;;;7.33
76901;BMP280;65859;43.020;25.096;2022-12-29T17:50:51;100125.28;;;7.18
76901;BMP280;65859;43.020;25.096;2022-12-29T17:53:24;100130.38;;;7.04
76901;BMP280;65859;43.020;25.096;2022-12-29T17:55:52;100126.22;;;6.93
76901;BMP280;65859;43.020;25.096;2022-12-29T18:00:47;100133.97;;;6.69
76901;BMP280;65859;43.020;25.096;2022-12-29T18:03:20;100131.03;;;6.81
76901;BMP280;65859;43.020;25.096;2022-12-29T18:05:47;100130.53;;;6.69
76901;BMP280;65859;43.020;25.096;2022-12-29T18:08:15;100125.59;;;6.52
76901;BMP280;65859;43.020;25.096;2022-12-29T18:10:42;100126.13;;;6.49
76901;BMP280;65859;43.020;25.096;2022-12-29T18:15:47;100128.78;;;6.49
76901;BMP280;65859;43.020;25.096;2022-12-29T18:18:16;100121.44;;;6.41
76901;BMP280;65859;43.020;25.096;2022-12-29T18:20:45;100122.53;;;6.30
76901;BMP280;65859;43.020;25.096;2022-12-29T18:25:54;100120.44;;;6.06
76901;BMP280;65859;43.020;25.096;2022-12-29T18:28:24;100114.91;;;6.08
76901;BMP280;65859;43.020;25.096;2022-12-29T18:30:52;100115.69;;;6.08
76901;BMP280;65859;43.020;25.096;2022-12-29T18:33:20;100116.97;;;6.21
76901;BMP280;65859;43.020;25.096;2022-12-29T18:36:02;100126.22;;;6.13
76901;BMP280;65859;43.020;25.096;2022-12-29T18:38:30;100130.72;;;5.97
76901;BMP280;65859;43.020;25.096;2022-12-29T18:40:57;100120.84;;;6.54
76901;BMP280;65859;43.020;25.096;2022-12-29T18:43:24;100122.13;;;6.62
76901;BMP280;65859;43.020;25.096;2022-12-29T18:45:52;100136.09;;;6.67
76901;BMP280;65859;43.020;25.096;2022-12-29T18:48:19;100124.84;;;6.41
76901;BMP280;65859;43.020;25.096;2022-12-29T18:50:47;100121.25;;;6.01
76901;BMP280;65859;43.020;25.096;2022-12-29T18:53:22;100117.56;;;5.87
76901;BMP280;65859;43.020;25.096;2022-12-29T18:55:51;100121.28;;;5.76
76901;BMP280;65859;43.020;25.096;2022-12-29T18:58:18;100123.38;;;5.69
76901;BMP280;65859;43.020;25.096;2022-12-29T19:00:45;100119.94;;;5.68
76901;BMP280;65859;43.020;25.096;2022-12-29T19:03:13;100117.03;;;5.70
76901;BMP280;65859;43.020;25.096;2022-12-29T19:05:41;100109.13;;;5.39
76901;BMP280;65859;43.020;25.096;2022-12-29T19:08:09;100117.56;;;5.41
76901;BMP280;65859;43.020;25.096;2022-12-29T19:10:36;100126.78;;;5.59
76901;BMP280;65859;43.020;25.096;2022-12-29T19:13:03;100118.34;;;5.47
76901;BMP280;65859;43.020;25.096;2022-12-29T19:15:33;100115.91;;;5.15
76901;BMP280;65859;43.020;25.096;2022-12-29T19:18:03;100117.75;;;5.09
76901;BMP280;65859;43.020;25.096;2022-12-29T19:23:03;100119.75;;;4.71
76901;BMP280;65859;43.020;25.096;2022-12-29T19:25:30;100119.47;;;4.73
76901;BMP280;65859;43.020;25.096;2022-12-29T19:27:57;100116.53;;;4.64
76901;BMP280;65859;43.020;25.096;2022-12-29T19:30:25;100121.06;;;4.79
76901;BMP280;65859;43.020;25.096;2022-12-29T19:32:54;100117.13;;;4.77
76901;BMP280;65859;43.020;25.096;2022-12-29T19:35:23;100113.19;;;4.79
76901;BMP280;65859;43.020;25.096;2022-12-29T19:37:50;100121.09;;;4.84
76901;BMP280;65859;43.020;25.096;2022-12-29T19:40:19;100114.44;;;4.66
76901;BMP280;65859;43.020;25.096;2022-12-29T19:42:46;100119.47;;;4.73
76901;BMP280;65859;43.020;25.096;2022-12-29T19:45:13;100121.06;;;4.79
76901;BMP280;65859;43.020;25.096;2022-12-29T19:47:41;100122.09;;;4.78
76901;BMP280;65859;43.020;25.096;2022-12-29T19:50:11;100121.31;;;4.78
76901;BMP280;65859;43.020;25.096;2022-12-29T19:52:38;100122.59;;;4.65
76901;BMP280;65859;43.020;25.096;2022-12-29T19:55:06;100118.19;;;4.76
76901;BMP280;65859;43.020;25.096;2022-12-29T19:57:32;100116.59;;;4.80
76901;BMP280;65859;43.020;25.096;2022-12-29T19:59:59;100120.19;;;4.63
76901;BMP280;65859;43.020;25.096;2022-12-29T20:02:29;100124.38;;;4.59
76901;BMP280;65859;43.020;25.096;2022-12-29T20:04:56;100129.81;;;4.42
76901;BMP280;65859;43.020;25.096;2022-12-29T20:07:24;100124.84;;;4.46
76901;BMP280;65859;43.020;25.096;2022-12-29T20:09:50;100121.34;;;4.30
76901;BMP280;65859;43.020;25.096;2022-12-29T20:12:18;100117.69;;;4.31
76901;BMP280;65859;43.020;25.096;2022-12-29T20:14:45;100125.06;;;4.34
76901;BMP280;65859;43.020;25.096;2022-12-29T20:17:14;100112.56;;;4.62
76901;BMP280;65859;43.020;25.096;2022-12-29T20:19:41;100112.38;;;4.73
76901;BMP280;65859;43.020;25.096;2022-12-29T20:22:11;100121.47;;;4.51
76901;BMP280;65859;43.020;25.096;2022-12-29T20:24:38;100126.50;;;4.15
76901;BMP280;65859;43.020;25.096;2022-12-29T20:27:06;100115.81;;;3.89
76901;BMP280;65859;43.020;25.096;2022-12-29T20:29:36;100117.78;;;3.77
76901;BMP280;65859;43.020;25.096;2022-12-29T20:32:12;100122.66;;;3.63
76901;BMP280;65859;43.020;25.096;2022-12-29T20:34:41;100124.09;;;3.76
76901;BMP280;65859;43.020;25.096;2022-12-29T20:37:09;100124.56;;;3.41
76901;BMP280;65859;43.020;25.096;2022-12-29T20:39:36;100124.31;;;3.42
76901;BMP280;65859;43.020;25.096;2022-12-29T20:42:04;100124.63;;;3.51
76901;BMP280;65859;43.020;25.096;2022-12-29T20:44:31;100123.47;;;3.37
76901;BMP280;65859;43.020;25.096;2022-12-29T20:46:59;100125.66;;;3.45
76901;BMP280;65859;43.020;25.096;2022-12-29T20:49:26;100119.97;;;3.31
76901;BMP280;65859;43.020;25.096;2022-12-29T20:51:54;100121.69;;;3.42
76901;BMP280;65859;43.020;25.096;2022-12-29T20:54:22;100119.69;;;3.55
76901;BMP280;65859;43.020;25.096;2022-12-29T20:56:49;100105.22;;;3.79
76901;BMP280;65859;43.020;25.096;2022-12-29T20:59:17;100120.34;;;3.67
76901;BMP280;65859;43.020;25.096;2022-12-29T21:01:44;100119.47;;;3.88
76901;BMP280;65859;43.020;25.096;2022-12-29T21:04:10;100122.28;;;4.14
76901;BMP280;65859;43.020;25.096;2022-12-29T21:06:37;100118.97;;;3.91
76901;BMP280;65859;43.020;25.096;2022-12-29T21:09:04;100126.66;;;3.39
76901;BMP280;65859;43.020;25.096;2022-12-29T21:11:32;100130.81;;;3.13
76901;BMP280;65859;43.020;25.096;2022-12-29T21:13:59;100129.00;;;3.40
76901;BMP280;65859;43.020;25.096;2022-12-29T21:16:25;100120.09;;;3.41
76901;BMP280;65859;43.020;25.096;2022-12-29T21:18:52;100125.00;;;3.33
76901;BMP280;65859;43.020;25.096;2022-12-29T21:21:23;100124.84;;;3.17
76901;BMP280;65859;43.020;25.096;2022-12-29T21:23:50;100122.44;;;3.16
76901;BMP280;65859;43.020;25.096;2022-12-29T21:26:22;100116.50;;;3.80
76901;BMP280;65859;43.020;25.096;2022-12-29T21:28:49;100125.50;;;3.89
76901;BMP280;65859;43.020;25.096;2022-12-29T21:31:23;100118.13;;;3.54
76901;BMP280;65859;43.020;25.096;2022-12-29T21:33:51;100118.88;;;3.27
76901;BMP280;65859;43.020;25.096;2022-12-29T21:36:18;100123.84;;;3.51
76901;BMP280;65859;43.020;25.096;2022-12-29T21:38:44;100117.19;;;3.16
76901;BMP280;65859;43.020;25.096;2022-12-29T21:41:13;100118.13;;;2.83
76901;BMP280;65859;43.020;25.096;2022-12-29T21:43:40;100112.25;;;2.97
76901;BMP280;65859;43.020;25.096;2022-12-29T21:46:07;100113.28;;;2.91
76901;BMP280;65859;43.020;25.096;2022-12-29T21:48:34;100119.44;;;3.29
76901;BMP280;65859;43.020;25.096;2022-12-29T21:51:09;100108.88;;;3.73
76901;BMP280;65859;43.020;25.096;2022-12-29T21:53:57;100115.09;;;3.99
76901;BMP280;65859;43.020;25.096;2022-12-29T21:56:47;100110.84;;;3.12
76901;BMP280;65859;43.020;25.096;2022-12-29T21:59:15;100116.69;;;2.92
76901;BMP280;65859;43.020;25.096;2022-12-29T22:02:01;100108.78;;;2.70
76901;BMP280;65859;43.020;25.096;2022-12-29T22:04:48;100106.69;;;2.50
76901;BMP280;65859;43.020;25.096;2022-12-29T22:07:39;100108.19;;;2.63
76901;BMP280;65859;43.020;25.096;2022-12-29T22:10:26;100112.34;;;3.03
76901;BMP280;65859;43.020;25.096;2022-12-29T22:13:20;100109.31;;;2.72
76901;BMP280;65859;43.020;25.096;2022-12-29T22:15:47;100105.19;;;2.37
76901;BMP280;65859;43.020;25.096;2022-12-29T22:18:54;100102.81;;;2.36
76901;BMP280;65859;43.020;25.096;2022-12-29T22:21:28;100104.28;;;2.27
76901;BMP280;65859;43.020;25.096;2022-12-29T22:24:02;100111.38;;;2.48
76901;BMP280;65859;43.020;25.096;2022-12-29T22:26:28;100105.53;;;2.24
76901;BMP280;65859;43.020;25.096;2022-12-29T22:28:56;100104.69;;;2.79
76901;BMP280;65859;43.020;25.096;2022-12-29T22:31:25;100108.06;;;2.96
76901;BMP280;65859;43.020;25.096;2022-12-29T22:35:23;100098.91;;;2.38
76901;BMP280;65859;43.020;25.096;2022-12-29T22:37:49;100101.78;;;2.76
76901;BMP280;65859;43.020;25.096;2022-12-29T22:40:16;100093.91;;;2.76
76901;BMP280;65859;43.020;25.096;2022-12-29T22:42:42;100100.50;;;3.00
76901;BMP280;65859;43.020;25.096;2022-12-29T22:45:09;100093.69;;;2.77
76901;BMP280;65859;43.020;25.096;2022-12-29T22:47:36;100086.28;;;2.52
76901;BMP280;65859;43.020;25.096;2022-12-29T22:50:03;100088.13;;;2.52
76901;BMP280;65859;43.020;25.096;2022-12-29T22:52:29;100083.69;;;2.35
76901;BMP280;65859;43.020;25.096;2022-12-29T22:54:56;100088.88;;;2.30
76901;BMP280;65859;43.020;25.096;2022-12-29T22:57:22;100088.06;;;2.13
76901;BMP280;65859;43.020;25.096;2022-12-29T22:59:50;100094.59;;;2.27
76901;BMP280;65859;43.020;25.096;2022-12-29T23:02:16;100087.84;;;1.98
76901;BMP280;65859;43.020;25.096;2022-12-29T23:04:43;100087.28;;;1.79
76901;BMP280;65859;43.020;25.096;2022-12-29T23:07:09;100088.56;;;1.76
76901;BMP280;65859;43.020;25.096;2022-12-29T23:09:36;100088.41;;;1.66
76901;BMP280;65859;43.020;25.096;2022-12-29T23:12:02;100084.69;;;1.79
76901;BMP280;65859;43.020;25.096;2022-12-29T23:14:28;100080.88;;;2.59
76901;BMP280;65859;43.020;25.096;2022-12-29T23:16:55;100082.00;;;2.63
76901;BMP280;65859;43.020;25.096;2022-12-29T23:19:21;100088.31;;;2.67
76901;BMP280;65859;43.020;25.096;2022-12-29T23:21:47;100092.78;;;3.10
76901;BMP280;65859;43.020;25.096;2022-12-29T23:24:14;100096.06;;;3.23
76901;BMP280;65859;43.020;25.096;2022-12-29T23:26:42;100088.91;;;2.96
76901;BMP280;65859;43.020;25.096;2022-12-29T23:29:11;100077.63;;;2.30
76901;BMP280;65859;43.020;25.096;2022-12-29T23:31:40;100081.84;;;2.14
76901;BMP280;65859;43.020;25.096;2022-12-29T23:34:07;100086.25;;;2.69